Time;durP1;ratioP1;P1;durP2;ratioP2;P2;SDS_P1;SDS_P2;PMS_P1;PMS_P2;Temp;Humidity;BMP_temperature;BMP_pressure;BME280_temperature;BME280_humidity;BME280_pressure;Samples;Min_cycle;Max_cycle;Signal;HPM_P1;HPM_P2
2022/01/05 00:00:43;;;;;;;;;0.00;0.00;;;;;3.96;87.70;98223.88;5090246;28;8834;-65
2022/01/05 00:03:11;;;;;;;;;0.00;0.00;;;;;3.90;88.13;98219.09;5091394;28;8923;-66
2022/01/05 00:05:39;;;;;;;;;0.00;0.00;;;;;3.88;88.41;98207.88;5090435;28;8838;-65
2022/01/05 00:08:07;;;;;;;;;0.00;0.00;;;;;3.87;87.83;98218.50;5090858;28;8858;-65
2022/01/05 00:10:35;;;;;;;;;0.00;0.00;;;;;3.85;87.96;98210.75;5090294;28;8870;-66
2022/01/05 00:13:02;;;;;;;;;0.00;0.00;;;;;3.84;88.34;98213.50;5091486;28;8858;-65
2022/01/05 00:15:30;;;;;;;;;0.20;0.20;;;;;3.84;87.69;98218.75;5092642;28;8968;-66
2022/01/05 00:17:58;;;;;;;;;0.00;0.00;;;;;3.83;88.02;98227.63;5091950;28;8922;-66
2022/01/05 00:20:26;;;;;;;;;0.40;0.00;;;;;3.83;88.09;98227.63;5091493;28;9186;-66
2022/01/05 00:22:53;;;;;;;;;1.00;1.00;;;;;3.82;88.31;98232.03;5092425;28;8911;-65
2022/01/05 00:25:21;;;;;;;;;0.00;0.00;;;;;3.81;88.31;98230.38;5092837;28;8930;-65
2022/01/05 00:27:49;;;;;;;;;0.00;0.00;;;;;3.78;88.12;98237.69;5091876;28;8858;-66
2022/01/05 00:30:17;;;;;;;;;0.00;0.00;;;;;3.71;88.13;98233.84;5092695;28;8978;-66
2022/01/05 00:32:44;;;;;;;;;0.00;0.00;;;;;3.65;88.20;98233.50;5092104;28;8861;-65
2022/01/05 00:35:13;;;;;;;;;1.20;0.40;;;;;3.61;88.03;98242.59;5092866;28;8865;-66
2022/01/05 00:37:40;;;;;;;;;0.00;0.00;;;;;3.58;88.54;98248.97;5092613;28;9169;-66
2022/01/05 00:40:08;;;;;;;;;0.00;0.00;;;;;3.57;88.74;98254.34;5092475;28;8856;-65
2022/01/05 00:42:36;;;;;;;;;0.00;0.00;;;;;3.55;88.77;98251.81;5092852;28;8873;-66
2022/01/05 00:45:04;;;;;;;;;0.00;0.00;;;;;3.54;88.56;98251.97;5092993;28;8826;-65
2022/01/05 00:47:32;;;;;;;;;0.00;0.00;;;;;3.55;88.89;98251.81;5091238;28;8970;-66
2022/01/05 00:50:00;;;;;;;;;0.20;0.20;;;;;3.54;88.24;98260.66;5091905;28;8834;-67
2022/01/05 00:52:27;;;;;;;;;0.00;0.00;;;;;3.52;88.64;98252.06;5090892;28;8856;-65
2022/01/05 00:54:58;;;;;;;;;1.40;1.00;;;;;3.50;88.72;98251.34;5092294;28;8854;-66
2022/01/05 00:57:26;;;;;;;;;1.00;1.00;;;;;3.45;88.78;98258.75;5091965;28;8916;-65
2022/01/05 00:59:53;;;;;;;;;0.60;0.60;;;;;3.44;88.45;98262.34;5092520;28;8996;-66
2022/01/05 01:02:21;;;;;;;;;0.20;0.20;;;;;3.42;88.42;98256.34;5091902;28;8979;-65
2022/01/05 01:04:50;;;;;;;;;0.80;0.80;;;;;3.41;88.77;98261.75;5091557;28;8856;-65
2022/01/05 01:07:17;;;;;;;;;0.00;0.00;;;;;3.40;88.17;98265.34;5091302;28;9543;-65
2022/01/05 01:09:45;;;;;;;;;1.00;1.00;;;;;3.40;89.04;98260.09;5093218;28;8858;-65
2022/01/05 01:12:13;;;;;;;;;0.60;0.00;;;;;3.40;88.47;98255.63;5092196;28;8942;-65
2022/01/05 01:14:41;;;;;;;;;0.00;0.00;;;;;3.39;88.26;98259.22;5089959;28;8968;-65
2022/01/05 01:17:08;;;;;;;;;1.80;1.00;;;;;3.36;88.32;98264.75;5090361;28;8838;-65
2022/01/05 01:19:36;;;;;;;;;0.00;0.00;;;;;3.33;88.40;98249.19;5091056;28;8863;-65
2022/01/05 01:22:04;;;;;;;;;5.60;3.00;;;;;3.32;88.74;98258.03;5090006;28;8842;-64
2022/01/05 01:24:32;;;;;;;;;1.00;1.00;;;;;3.32;88.37;98262.47;5089467;28;8853;-65
2022/01/05 01:27:00;;;;;;;;;0.00;0.00;;;;;3.29;88.71;98253.03;5090404;28;8958;-64
2022/01/05 01:29:28;;;;;;;;;3.00;1.00;;;;;3.27;88.97;98257.53;5090422;28;8985;-64
2022/01/05 01:31:56;;;;;;;;;1.40;1.40;;;;;3.25;88.84;98262.09;5089545;28;8879;-64
2022/01/05 01:34:24;;;;;;;;;0.60;0.60;;;;;3.25;88.27;98258.63;5088706;28;8840;-65
2022/01/05 01:36:51;;;;;;;;;1.00;1.00;;;;;3.22;88.70;98266.75;5088900;28;8849;-65
2022/01/05 01:39:19;;;;;;;;;4.00;1.00;;;;;3.21;88.95;98275.59;5090324;28;8857;-64
2022/01/05 01:41:47;;;;;;;;;2.20;1.00;;;;;3.19;88.57;98277.50;5089687;28;8866;-65
2022/01/05 01:44:16;;;;;;;;;1.00;1.00;;;;;3.17;88.39;98269.72;5088863;28;8842;-64
2022/01/05 01:46:44;;;;;;;;;3.00;1.00;;;;;3.18;88.67;98289.81;5089294;28;8864;-64
2022/01/05 01:49:12;;;;;;;;;2.20;2.20;;;;;3.19;88.36;98283.59;5088890;28;9516;-64
2022/01/05 01:51:40;;;;;;;;;3.20;3.00;;;;;3.19;88.29;98283.59;5089901;28;8982;-65
2022/01/05 01:54:07;;;;;;;;;4.80;3.40;;;;;3.18;88.39;98284.53;5089407;28;8854;-64
2022/01/05 01:56:35;;;;;;;;;2.20;1.40;;;;;3.18;88.36;98287.19;5089944;28;8841;-65
2022/01/05 01:59:03;;;;;;;;;1.00;1.00;;;;;3.16;88.78;98286.47;5088995;28;8907;-65
2022/01/05 02:01:31;;;;;;;;;3.20;3.00;;;;;3.16;88.21;98278.56;5090330;28;8972;-65
2022/01/05 02:03:59;;;;;;;;;2.20;1.00;;;;;3.14;88.67;98275.25;5088485;28;8858;-64
2022/01/05 02:06:27;;;;;;;;;3.20;2.60;;;;;3.14;88.20;98277.88;5089388;28;9531;-65
2022/01/05 02:08:55;;;;;;;;;3.60;3.00;;;;;3.13;88.16;98278.81;5089480;28;8849;-65
2022/01/05 02:11:23;;;;;;;;;3.00;3.00;;;;;3.12;88.65;98271.03;5089239;28;8833;-65
2022/01/05 02:13:50;;;;;;;;;3.00;3.00;;;;;3.12;88.84;98284.19;5089918;28;8850;-66
2022/01/05 02:16:18;;;;;;;;;3.00;3.00;;;;;3.10;88.65;98276.41;5089164;28;8872;-65
2022/01/05 02:21:28;;;;;;;;;4.00;3.40;;;;;3.08;88.69;98288.84;5087671;28;8976;-65
2022/01/05 02:23:56;;;;;;;;;3.00;3.00;;;;;3.06;88.32;98282.03;5088954;28;8884;-65
2022/01/05 02:26:23;;;;;;;;;3.80;3.80;;;;;3.05;88.00;98281.19;5089593;28;8868;-65
2022/01/05 02:28:51;;;;;;;;;4.00;4.00;;;;;3.03;88.49;98282.28;5089887;28;8849;-66
2022/01/05 02:31:19;;;;;;;;;2.20;2.20;;;;;3.00;88.30;98282.47;5089804;28;8853;-66
2022/01/05 02:33:47;;;;;;;;;3.00;3.00;;;;;2.96;88.19;98276.63;5090041;28;8826;-65
2022/01/05 02:36:18;;;;;;;;;4.00;4.00;;;;;2.94;88.17;98288.22;5089836;28;8860;-65
2022/01/05 02:38:46;;;;;;;;;0.40;0.00;;;;;2.91;88.83;98284.03;5090547;28;8872;-65
2022/01/05 02:41:13;;;;;;;;;4.80;4.00;;;;;2.91;88.43;98289.28;5088760;28;8887;-65
2022/01/05 02:43:41;;;;;;;;;3.60;3.60;;;;;2.92;88.95;98304.09;5090165;28;8868;-66
2022/01/05 02:46:09;;;;;;;;;1.00;1.00;;;;;2.94;88.76;98299.56;5089758;28;8846;-65
2022/01/05 02:48:37;;;;;;;;;4.00;4.00;;;;;2.97;88.72;98299.34;5090445;28;9499;-65
2022/01/05 02:51:05;;;;;;;;;3.20;3.20;;;;;3.03;88.86;98311.19;5090141;28;8856;-64
2022/01/05 02:53:34;;;;;;;;;1.40;0.80;;;;;3.09;89.00;98310.72;5089692;28;8822;-64
2022/01/05 02:56:02;;;;;;;;;4.20;3.80;;;;;3.16;88.28;98307.50;5089668;28;8856;-66
2022/01/05 02:58:30;;;;;;;;;4.00;4.00;;;;;3.19;88.68;98317.78;5087476;28;8953;-65
2022/01/05 03:00:57;;;;;;;;;3.00;3.00;;;;;3.22;88.46;98309.66;5089145;28;8923;-65
2022/01/05 03:03:25;;;;;;;;;6.00;4.80;;;;;3.24;87.98;98312.19;5089502;28;8838;-65
2022/01/05 03:05:53;;;;;;;;;8.20;7.40;;;;;3.26;88.18;98318.16;5090551;28;8822;-65
2022/01/05 03:08:21;;;;;;;;;6.00;4.40;;;;;3.29;88.23;98325.81;5088503;28;8864;-65
2022/01/05 03:10:48;;;;;;;;;3.20;1.40;;;;;3.30;88.34;98333.59;5088830;28;8850;-65
2022/01/05 03:13:16;;;;;;;;;5.20;5.20;;;;;3.35;88.26;98326.19;5089134;28;8907;-65
2022/01/05 03:15:44;;;;;;;;;0.00;0.00;;;;;3.37;88.14;98332.16;5090400;28;8838;-65
2022/01/05 03:18:12;;;;;;;;;6.40;5.60;;;;;3.37;87.76;98334.81;5088145;28;8849;-65
2022/01/05 03:20:40;;;;;;;;;4.40;4.40;;;;;3.36;88.23;98335.75;5091155;28;8837;-65
2022/01/05 03:23:07;;;;;;;;;6.00;5.60;;;;;3.35;88.19;98347.25;5090655;28;8891;-65
2022/01/05 03:25:36;;;;;;;;;10.80;10.40;;;;;3.36;88.38;98348.91;5094285;28;8984;-66
2022/01/05 03:28:03;;;;;;;;;3.80;3.80;;;;;3.39;88.05;98359.19;5093202;28;8850;-65
2022/01/05 03:30:31;;;;;;;;;7.80;7.00;;;;;3.40;87.54;98365.31;5094298;28;8892;-65
2022/01/05 03:35:47;;;;;;;;;8.60;6.00;;;;;3.40;87.74;98368.75;5087942;28;8858;-65
2022/01/05 03:38:15;;;;;;;;;9.00;6.40;;;;;3.41;88.04;98366.97;5093403;28;8869;-64
2022/01/05 03:40:43;;;;;;;;;3.80;3.00;;;;;3.43;87.66;98368.53;5092754;28;8846;-65
2022/01/05 03:43:12;;;;;;;;;9.60;9.00;;;;;3.46;88.16;98372.69;5092802;28;8855;-65
2022/01/05 03:45:40;;;;;;;;;8.60;7.80;;;;;3.45;87.98;98371.88;5093406;28;9608;-65
2022/01/05 03:48:08;;;;;;;;;1.40;1.40;;;;;3.45;87.63;98373.66;5092985;28;8866;-65
2022/01/05 03:50:35;;;;;;;;;4.80;4.60;;;;;3.43;87.48;98381.69;5093220;28;8930;-65
2022/01/05 03:53:04;;;;;;;;;1.40;0.60;;;;;3.42;87.51;98381.78;5092644;28;8872;-65
2022/01/05 03:55:32;;;;;;;;;8.20;6.60;;;;;3.42;87.77;98379.97;5093167;28;8958;-65
2022/01/05 03:58:00;;;;;;;;;11.20;9.20;;;;;3.43;88.06;98386.09;5092989;28;8854;-65
2022/01/05 04:00:29;;;;;;;;;2.20;2.20;;;;;3.41;87.47;98378.31;5092976;28;8862;-65
2022/01/05 04:02:57;;;;;;;;;4.40;4.40;;;;;3.38;87.79;98382.97;5092562;28;8869;-65
2022/01/05 04:05:25;;;;;;;;;6.60;6.20;;;;;3.34;87.76;98384.16;5092696;28;8879;-66
2022/01/05 04:07:53;;;;;;;;;12.20;10.40;;;;;3.30;88.12;98391.44;5091973;28;8911;-65
2022/01/05 04:10:20;;;;;;;;;3.20;1.00;;;;;3.27;87.45;98396.09;5092765;28;8875;-65
2022/01/05 04:12:48;;;;;;;;;5.40;4.40;;;;;3.25;88.04;98401.47;5092658;28;8996;-65
2022/01/05 04:15:16;;;;;;;;;2.20;0.60;;;;;3.22;87.68;98399.06;5092555;28;8845;-64
2022/01/05 04:17:44;;;;;;;;;6.80;6.00;;;;;3.17;87.46;98405.66;5091532;28;8861;-64
2022/01/05 04:20:11;;;;;;;;;2.60;2.60;;;;;3.10;87.78;98410.50;5091406;28;8826;-64
2022/01/05 04:22:39;;;;;;;;;6.00;6.00;;;;;3.08;88.29;98416.81;5091290;28;8849;-64
2022/01/05 04:25:07;;;;;;;;;6.40;4.80;;;;;3.05;88.17;98423.16;5091221;28;8976;-65
2022/01/05 04:27:35;;;;;;;;;9.40;7.00;;;;;2.99;88.20;98418.34;5091618;28;8842;-65
2022/01/05 04:30:03;;;;;;;;;5.20;4.80;;;;;2.94;87.55;98417.84;5091976;28;8834;-64
2022/01/05 04:32:30;;;;;;;;;6.00;4.00;;;;;2.92;88.05;98427.63;5091417;28;8837;-64
2022/01/05 04:35:18;;;;;;;;;5.80;3.80;;;;;2.90;87.73;98428.69;5090679;28;9247;-65
2022/01/05 04:37:54;;;;;;;;;1.00;1.00;;;;;2.88;87.86;98441.94;5092390;28;8874;-64
2022/01/05 04:40:22;;;;;;;;;3.80;3.80;;;;;2.86;88.40;98448.25;5091732;28;8875;-65
2022/01/05 04:42:49;;;;;;;;;4.00;4.00;;;;;2.83;88.53;98446.72;5092602;28;8846;-65
2022/01/05 04:45:18;;;;;;;;;4.40;3.00;;;;;2.84;88.69;98450.16;5092821;28;8849;-64
2022/01/05 04:47:46;;;;;;;;;5.00;3.80;;;;;2.82;87.62;98447.66;5092203;28;8976;-65
2022/01/05 04:50:15;;;;;;;;;7.60;6.40;;;;;2.78;87.91;98451.44;5092139;28;8844;-64
2022/01/05 04:52:43;;;;;;;;;6.00;5.20;;;;;2.77;87.82;98465.53;5091872;28;8834;-65
2022/01/05 04:55:11;;;;;;;;;1.00;1.00;;;;;2.75;87.87;98451.69;5091929;28;8864;-64
2022/01/05 04:57:39;;;;;;;;;0.80;0.80;;;;;2.72;88.42;98459.75;5091773;28;8865;-65
2022/01/05 05:00:06;;;;;;;;;0.40;0.40;;;;;2.68;88.44;98463.59;5091785;28;8860;-66
2022/01/05 05:02:34;;;;;;;;;4.60;3.60;;;;;2.66;88.41;98459.38;5090260;28;8854;-65
2022/01/05 05:05:02;;;;;;;;;2.20;1.80;;;;;2.63;87.59;98462.22;5091622;28;8873;-65
2022/01/05 05:07:30;;;;;;;;;2.60;2.60;;;;;2.59;88.24;98466.00;5090850;28;8857;-66
2022/01/05 05:10:02;;;;;;;;;0.40;0.00;;;;;2.56;88.03;98469.69;5090612;28;8826;-65
2022/01/05 05:12:30;;;;;;;;;3.60;3.40;;;;;2.52;87.90;98460.38;5089893;28;8841;-65
2022/01/05 05:14:58;;;;;;;;;0.60;0.60;;;;;2.50;88.09;98464.88;5090709;28;8846;-65
2022/01/05 05:17:26;;;;;;;;;0.60;0.60;;;;;2.45;87.99;98474.88;5090816;28;8880;-65
2022/01/05 05:19:54;;;;;;;;;3.00;3.00;;;;;2.42;87.62;98464.56;5090518;28;8818;-64
2022/01/05 05:22:21;;;;;;;;;0.60;0.60;;;;;2.41;88.27;98467.34;5090214;28;8860;-65
2022/01/05 05:24:49;;;;;;;;;3.00;3.00;;;;;2.38;88.53;98463.13;5090720;28;8850;-64
2022/01/05 05:27:17;;;;;;;;;3.00;1.00;;;;;2.36;88.22;98466.81;5090855;28;8854;-65
2022/01/05 05:29:45;;;;;;;;;0.80;0.80;;;;;2.33;87.76;98478.34;5090695;28;8856;-64
2022/01/05 05:32:12;;;;;;;;;0.00;0.00;;;;;2.31;88.13;98472.38;5089951;28;8842;-64
2022/01/05 05:34:40;;;;;;;;;0.80;0.80;;;;;2.27;87.85;98480.59;5091262;28;8874;-64
2022/01/05 05:37:08;;;;;;;;;2.60;2.60;;;;;2.26;87.58;98484.97;5091324;28;8988;-63
2022/01/05 05:39:36;;;;;;;;;0.00;0.00;;;;;2.24;88.01;98484.25;5090956;28;9582;-64
2022/01/05 05:42:03;;;;;;;;;0.00;0.00;;;;;2.23;88.29;98481.72;5089831;28;8885;-66
2022/01/05 05:44:31;;;;;;;;;0.00;0.00;;;;;2.22;87.77;98477.44;5090721;28;8857;-65
2022/01/05 05:47:00;;;;;;;;;0.00;0.00;;;;;2.21;88.12;98479.19;5088031;28;8858;-65
2022/01/05 05:49:27;;;;;;;;;1.00;1.00;;;;;2.21;87.62;98481.81;5089051;28;8861;-65
2022/01/05 05:51:55;;;;;;;;;0.00;0.00;;;;;2.21;88.01;98486.25;5087832;28;8900;-67
2022/01/05 05:54:23;;;;;;;;;0.00;0.00;;;;;2.20;87.76;98485.41;5089536;28;8977;-64
2022/01/05 05:56:50;;;;;;;;;1.40;1.00;;;;;2.19;87.95;98488.97;5088156;28;8884;-65
2022/01/05 05:59:18;;;;;;;;;0.60;0.60;;;;;2.19;87.34;98491.59;5088082;28;8858;-65
2022/01/05 06:01:46;;;;;;;;;0.60;0.60;;;;;2.19;87.55;98498.66;5087333;28;8838;-65
2022/01/05 06:04:14;;;;;;;;;0.00;0.00;;;;;2.15;86.91;98492.78;5087683;28;8834;-65
2022/01/05 06:06:42;;;;;;;;;1.00;0.40;;;;;2.15;87.23;98499.78;5087680;28;8935;-65
2022/01/05 06:09:09;;;;;;;;;0.00;0.00;;;;;2.14;87.06;98485.81;5088172;28;8988;-67
2022/01/05 06:11:37;;;;;;;;;1.00;0.20;;;;;2.14;87.26;98490.25;5087205;28;8841;-65
2022/01/05 06:14:04;;;;;;;;;0.00;0.00;;;;;2.12;86.89;98492.97;5088320;28;8830;-65
2022/01/05 06:16:32;;;;;;;;;0.00;0.00;;;;;2.13;86.79;98489.41;5086746;28;8883;-65
2022/01/05 06:19:00;;;;;;;;;0.00;0.00;;;;;2.13;87.14;98483.31;5087105;28;8970;-67
2022/01/05 06:21:28;;;;;;;;;0.00;0.00;;;;;2.11;86.58;98479.97;5087420;28;8869;-66
2022/01/05 06:23:55;;;;;;;;;0.00;0.00;;;;;2.10;86.86;98484.38;5086974;28;8857;-65
2022/01/05 06:26:23;;;;;;;;;0.00;0.00;;;;;2.09;86.88;98495.81;5087500;28;8907;-67
2022/01/05 06:28:51;;;;;;;;;1.00;1.00;;;;;2.10;86.65;98499.25;5088250;28;8846;-65
2022/01/05 06:31:19;;;;;;;;;0.00;0.00;;;;;2.08;86.88;98501.16;5086963;28;8872;-67
2022/01/05 06:33:47;;;;;;;;;0.60;0.60;;;;;2.09;87.01;98508.94;5088268;28;8842;-66
2022/01/05 06:36:15;;;;;;;;;0.40;0.00;;;;;2.10;86.69;98501.88;5087433;28;8990;-65
2022/01/05 06:38:42;;;;;;;;;1.00;0.00;;;;;2.10;86.84;98504.50;5087116;28;8874;-65
2022/01/05 06:41:10;;;;;;;;;0.00;0.00;;;;;2.08;86.88;98509.88;5086166;28;8862;-66
2022/01/05 06:43:37;;;;;;;;;0.60;0.60;;;;;2.08;86.48;98511.66;5085176;28;8980;-66
2022/01/05 06:46:05;;;;;;;;;1.00;1.00;;;;;2.07;86.89;98518.72;5083793;28;8850;-66
2022/01/05 06:48:33;;;;;;;;;0.80;0.80;;;;;2.07;87.07;98515.22;5086129;28;8842;-65
2022/01/05 06:51:01;;;;;;;;;0.00;0.00;;;;;2.08;86.37;98514.28;5084894;28;8939;-66
2022/01/05 06:53:29;;;;;;;;;1.40;0.40;;;;;2.08;86.88;98515.13;5084351;28;8860;-67
2022/01/05 06:55:57;;;;;;;;;0.00;0.00;;;;;2.10;86.71;98518.50;5085943;28;8857;-66
2022/01/05 06:58:24;;;;;;;;;2.40;2.20;;;;;2.10;86.76;98526.38;5087572;28;8862;-66
2022/01/05 07:00:52;;;;;;;;;1.40;1.00;;;;;2.18;86.04;98525.81;5089881;28;8856;-66
2022/01/05 07:03:20;;;;;;;;;1.00;1.00;;;;;2.24;85.81;98526.25;5086267;28;8850;-66
2022/01/05 07:05:48;;;;;;;;;5.60;3.40;;;;;2.32;86.44;98526.56;5088352;28;8903;-67
2022/01/05 07:08:15;;;;;;;;;0.80;0.80;;;;;2.39;86.09;98533.09;5088904;28;9197;-66
2022/01/05 07:10:43;;;;;;;;;0.20;0.20;;;;;2.43;85.79;98534.53;5087356;28;8865;-66
2022/01/05 07:13:11;;;;;;;;;2.20;1.40;;;;;2.48;85.69;98536.84;5086411;28;9697;-65
2022/01/05 07:15:39;;;;;;;;;1.80;0.80;;;;;2.53;85.15;98537.38;5087131;28;8964;-66
2022/01/05 07:18:07;;;;;;;;;1.00;0.00;;;;;2.55;85.60;98538.09;5087852;28;8964;-66
2022/01/05 07:20:34;;;;;;;;;1.00;1.00;;;;;2.57;85.45;98546.72;5087493;28;8938;-66
2022/01/05 07:23:02;;;;;;;;;0.20;0.20;;;;;2.59;85.05;98535.13;5086945;28;8857;-67
2022/01/05 07:25:30;;;;;;;;;0.00;0.00;;;;;2.58;85.29;98530.84;5088053;28;8891;-66
2022/01/05 07:27:58;;;;;;;;;3.60;3.40;;;;;2.56;84.93;98524.88;5087167;28;8842;-65
2022/01/05 07:30:25;;;;;;;;;1.00;1.00;;;;;2.58;85.03;98532.66;5087955;28;8850;-66
2022/01/05 07:32:53;;;;;;;;;2.20;1.00;;;;;2.61;84.99;98527.16;5087988;28;9526;-65
2022/01/05 07:35:21;;;;;;;;;0.60;0.60;;;;;2.65;85.16;98539.16;5084311;28;8850;-67
2022/01/05 07:37:49;;;;;;;;;0.20;0.20;;;;;2.68;85.34;98545.03;5086655;28;8875;-66
2022/01/05 07:40:16;;;;;;;;;3.40;3.40;;;;;2.70;84.83;98540.50;5085454;28;8842;-66
2022/01/05 07:42:44;;;;;;;;;3.20;3.20;;;;;2.70;84.35;98543.13;5087237;28;8972;-67
2022/01/05 07:45:12;;;;;;;;;4.40;4.40;;;;;2.71;84.31;98543.94;5080543;28;8826;-66
2022/01/05 07:47:40;;;;;;;;;1.40;1.40;;;;;2.72;84.79;98546.47;5085277;28;8870;-65
2022/01/05 07:50:14;;;;;;;;;5.60;4.00;;;;;2.73;85.10;98542.91;5083168;28;8842;-66
2022/01/05 07:52:42;;;;;;;;;0.20;0.20;;;;;2.76;84.85;98553.22;5085234;28;8838;-66
2022/01/05 07:55:10;;;;;;;;;3.00;3.00;;;;;2.78;84.69;98540.78;5085301;28;8869;-67
2022/01/05 07:57:38;;;;;;;;;2.60;2.60;;;;;2.82;84.54;98565.06;5085525;28;8837;-66
2022/01/05 08:00:06;;;;;;;;;1.80;1.80;;;;;2.85;84.31;98570.94;5086026;28;8857;-66
2022/01/05 08:02:34;;;;;;;;;1.40;1.00;;;;;2.89;84.57;98582.09;5086641;28;8934;-65
2022/01/05 08:05:02;;;;;;;;;5.20;4.00;;;;;2.92;83.87;98573.97;5083266;28;8838;-65
2022/01/05 08:07:30;;;;;;;;;3.00;3.00;;;;;2.94;83.69;98591.31;5082799;28;8870;-68
2022/01/05 08:09:58;;;;;;;;;1.00;1.00;;;;;2.97;83.72;98577.13;5086481;28;8868;-67
2022/01/05 08:12:25;;;;;;;;;3.20;3.00;;;;;2.97;83.65;98566.63;5083604;28;8853;-67
2022/01/05 08:14:54;;;;;;;;;3.80;3.20;;;;;2.95;83.83;98582.47;5082436;28;8860;-69
2022/01/05 08:17:21;;;;;;;;;3.80;3.80;;;;;2.95;83.97;98579.03;5080762;28;8973;-66
2022/01/05 08:19:49;;;;;;;;;5.60;5.20;;;;;2.95;84.13;98585.13;5081512;28;9624;-68
2022/01/05 08:22:17;;;;;;;;;3.80;3.80;;;;;2.96;84.25;98576.28;5084331;28;9468;-68
2022/01/05 08:24:45;;;;;;;;;3.00;2.20;;;;;2.98;83.69;98571.78;5085230;28;8838;-66
2022/01/05 08:27:12;;;;;;;;;3.00;3.00;;;;;3.02;83.16;98575.03;5081292;28;8858;-67
2022/01/05 08:29:42;;;;;;;;;0.60;0.60;;;;;3.03;83.31;98572.25;5084036;28;8854;-67
2022/01/05 08:32:10;;;;;;;;;3.20;3.00;;;;;3.05;83.21;98590.56;5084085;28;8846;-67
2022/01/05 08:34:37;;;;;;;;;1.00;1.00;;;;;3.10;83.06;98584.03;5083755;28;8881;-67
2022/01/05 08:37:05;;;;;;;;;0.00;0.00;;;;;3.15;83.43;98587.19;5082644;28;8880;-67
2022/01/05 08:39:33;;;;;;;;;0.60;0.60;;;;;3.21;82.69;98585.88;5080529;28;8938;-68
2022/01/05 08:42:01;;;;;;;;;3.00;3.00;;;;;3.28;82.58;98584.50;5083712;28;8926;-66
2022/01/05 08:44:28;;;;;;;;;3.80;3.00;;;;;3.31;82.83;98587.75;5083783;28;8859;-67
2022/01/05 08:46:56;;;;;;;;;1.80;0.60;;;;;3.36;82.54;98590.91;5081978;28;9096;-68
2022/01/05 08:49:24;;;;;;;;;2.60;2.60;;;;;3.42;82.87;98584.34;5084193;28;9300;-68
2022/01/05 08:51:52;;;;;;;;;0.80;0.40;;;;;3.46;82.83;98584.00;5083966;28;8980;-68
2022/01/05 08:54:20;;;;;;;;;3.80;3.80;;;;;3.51;82.57;98584.53;5080353;28;8872;-67
2022/01/05 08:56:48;;;;;;;;;1.00;1.00;;;;;3.55;82.43;98583.34;5079518;28;8877;-66
2022/01/05 08:59:16;;;;;;;;;3.00;2.60;;;;;3.60;81.97;98583.84;5083720;28;9562;-67
2022/01/05 09:01:44;;;;;;;;;0.80;0.80;;;;;3.66;81.83;98582.56;5081855;28;8850;-66
2022/01/05 09:04:11;;;;;;;;;3.00;3.00;;;;;3.67;82.05;98599.06;5080754;28;8866;-66
2022/01/05 09:06:40;;;;;;;;;3.60;3.20;;;;;3.67;82.13;98596.44;5084004;28;8859;-66
2022/01/05 09:09:07;;;;;;;;;4.80;4.40;;;;;3.67;82.22;98598.25;5083854;28;8858;-67
2022/01/05 09:11:35;;;;;;;;;2.60;1.40;;;;;3.64;82.48;98587.91;5081861;28;8845;-66
2022/01/05 09:14:03;;;;;;;;;3.60;1.00;;;;;3.61;82.09;98590.78;5083566;28;8834;-67
2022/01/05 09:16:31;;;;;;;;;3.00;3.00;;;;;3.55;82.78;98585.97;5082091;28;8943;-66
2022/01/05 09:18:58;;;;;;;;;3.00;3.00;;;;;3.55;82.64;98578.06;5082627;28;8874;-66
2022/01/05 09:21:26;;;;;;;;;7.00;6.80;;;;;3.53;82.44;98566.84;5078419;28;8846;-66
2022/01/05 09:23:54;;;;;;;;;3.60;3.60;;;;;3.52;82.24;98578.31;5082246;28;8846;-67
2022/01/05 09:26:22;;;;;;;;;6.00;4.40;;;;;3.57;82.12;98597.22;5077800;28;8845;-67
2022/01/05 09:28:50;;;;;;;;;3.00;2.20;;;;;3.62;81.77;98596.91;5080185;28;8846;-66
2022/01/05 09:31:17;;;;;;;;;1.00;1.00;;;;;3.64;82.30;98587.09;5076320;28;8874;-64
2022/01/05 09:33:45;;;;;;;;;10.80;9.00;;;;;3.69;82.03;98579.72;5077824;28;8834;-64
2022/01/05 09:36:17;;;;;;;;;1.00;0.40;;;;;3.71;82.31;98578.63;5083290;28;8862;-66
2022/01/05 09:44:16;;;;;;;;;1.00;1.00;;;;;3.73;82.00;98588.09;5079733;28;9143;-56
2022/01/05 09:46:43;;;;;;;;;5.00;4.20;;;;;3.73;82.03;98584.63;5076987;28;8857;-56
2022/01/05 09:49:11;;;;;;;;;1.00;0.20;;;;;3.74;81.99;98588.94;5081516;28;8862;-56
2022/01/05 09:51:39;;;;;;;;;1.80;1.80;;;;;3.75;82.00;98588.00;5076764;28;8853;-56
2022/01/05 09:54:07;;;;;;;;;6.00;4.80;;;;;3.77;81.35;98596.59;5080636;28;8842;-56
2022/01/05 09:56:55;;;;;;;;;2.60;2.60;;;;;3.71;81.78;98590.97;5080596;28;8853;-56
2022/01/05 09:59:23;;;;;;;;;3.00;3.00;;;;;3.63;82.25;98609.94;5076191;28;9500;-56
2022/01/05 10:01:50;;;;;;;;;6.40;4.80;;;;;3.56;82.24;98608.69;5079771;28;8846;-56
2022/01/05 10:04:18;;;;;;;;;5.20;4.80;;;;;3.50;82.67;98618.84;5074158;28;8853;-56
2022/01/05 10:06:46;;;;;;;;;5.60;3.80;;;;;3.46;82.49;98605.06;5079174;28;8845;-55
2022/01/05 10:09:14;;;;;;;;;4.00;3.40;;;;;3.45;82.70;98595.50;5079108;28;8938;-56
2022/01/05 10:11:42;;;;;;;;;5.20;5.20;;;;;3.45;82.41;98595.50;5078344;28;8869;-56
2022/01/05 10:14:12;;;;;;;;;5.00;5.00;;;;;3.48;82.62;98599.69;5079912;28;8857;-56
2022/01/05 10:16:40;;;;;;;;;2.60;2.60;;;;;3.52;83.07;98594.09;5078726;28;8907;-56
2022/01/05 10:19:08;;;;;;;;;1.00;0.60;;;;;3.53;82.67;98585.25;5071287;28;8846;-56
2022/01/05 10:21:38;;;;;;;;;3.00;3.00;;;;;3.49;83.08;98596.13;5076889;28;8931;-56
2022/01/05 10:24:06;;;;;;;;;4.00;3.00;;;;;3.44;83.51;98583.28;5078126;28;8954;-56
2022/01/05 10:26:33;;;;;;;;;8.00;7.80;;;;;3.42;82.61;98589.63;5081156;28;8849;-56
2022/01/05 10:29:01;;;;;;;;;4.40;4.40;;;;;3.38;83.55;98588.13;5081891;28;9002;-56
2022/01/05 10:31:29;;;;;;;;;3.40;3.40;;;;;3.34;83.59;98582.25;5079463;28;8853;-56
2022/01/05 10:33:57;;;;;;;;;3.00;3.00;;;;;3.28;83.28;98577.47;5081520;28;8873;-56
2022/01/05 10:36:31;;;;;;;;;3.80;3.80;;;;;3.18;84.09;98584.31;5084430;28;8846;-57
2022/01/05 10:38:58;;;;;;;;;4.60;3.80;;;;;3.09;83.62;98592.88;5082665;28;8874;-56
2022/01/05 10:41:26;;;;;;;;;2.20;1.40;;;;;3.02;84.49;98591.63;5083659;28;8884;-57
2022/01/05 10:43:54;;;;;;;;;3.00;3.00;;;;;2.88;84.06;98589.13;5085296;28;8866;-56
2022/01/05 10:46:22;;;;;;;;;3.80;3.00;;;;;2.77;84.71;98585.56;5085394;28;8862;-56
2022/01/05 10:48:49;;;;;;;;;3.00;3.00;;;;;2.72;84.74;98587.69;5085307;28;9526;-56
2022/01/05 10:51:32;;;;;;;;;5.60;5.60;;;;;2.71;85.05;98591.25;5083563;28;8849;-56
2022/01/05 10:53:59;;;;;;;;;4.40;3.80;;;;;2.73;85.03;98597.25;5085491;28;8947;-56
2022/01/05 10:56:27;;;;;;;;;3.20;3.20;;;;;2.75;84.55;98587.47;5084300;28;8879;-56
2022/01/05 10:58:55;;;;;;;;;3.80;3.00;;;;;2.78;85.31;98593.34;5084845;28;8958;-55
2022/01/05 11:01:23;;;;;;;;;4.40;4.00;;;;;2.81;85.25;98597.56;5084548;28;8846;-55
2022/01/05 11:03:50;;;;;;;;;3.20;3.20;;;;;2.87;84.90;98605.84;5084257;28;8834;-56
2022/01/05 11:06:19;;;;;;;;;2.60;2.60;;;;;2.95;85.46;98590.38;5083672;28;8837;-55
2022/01/05 11:08:46;;;;;;;;;0.40;0.40;;;;;3.06;84.95;98600.13;5083356;28;9520;-55
2022/01/05 11:11:16;;;;;;;;;0.80;0.80;;;;;3.12;84.95;98584.78;5083568;28;8846;-55
2022/01/05 11:13:47;;;;;;;;;3.80;3.40;;;;;3.17;85.19;98590.53;5083194;28;8850;-55
2022/01/05 11:16:14;;;;;;;;;0.00;0.00;;;;;3.20;85.15;98594.75;5084682;28;8849;-55
2022/01/05 11:18:42;;;;;;;;;3.00;3.00;;;;;3.20;84.84;98594.75;5086185;28;9004;-54
2022/01/05 11:21:11;;;;;;;;;3.00;3.00;;;;;3.20;84.81;98587.69;5082993;28;8870;-55
2022/01/05 11:23:38;;;;;;;;;3.80;3.40;;;;;3.19;85.04;98614.91;5086196;28;8853;-55
2022/01/05 11:26:06;;;;;;;;;3.20;3.20;;;;;3.17;85.31;98614.19;5082558;28;8842;-54
2022/01/05 11:28:34;;;;;;;;;0.60;0.60;;;;;3.17;85.26;98601.06;5085078;28;8846;-55
2022/01/05 11:31:03;;;;;;;;;0.80;0.40;;;;;3.13;85.83;98594.34;5085128;28;8870;-54
2022/01/05 11:33:31;;;;;;;;;3.60;3.60;;;;;3.12;85.48;98629.47;5085454;28;8837;-55
2022/01/05 11:35:59;;;;;;;;;2.60;2.60;;;;;3.14;85.60;98617.06;5085029;28;8837;-55
2022/01/05 11:38:27;;;;;;;;;1.00;1.00;;;;;3.16;85.53;98638.81;5085818;28;8854;-54
2022/01/05 11:40:55;;;;;;;;;4.00;3.20;;;;;3.10;85.25;98631.34;5085008;28;8853;-54
2022/01/05 11:43:23;;;;;;;;;0.80;0.80;;;;;2.95;85.54;98621.91;5081066;28;8878;-56
2022/01/05 11:45:51;;;;;;;;;2.40;2.20;;;;;2.86;86.42;98640.09;5083989;28;8888;-56
2022/01/05 11:48:19;;;;;;;;;1.80;1.40;;;;;2.81;86.06;98650.94;5084257;28;8865;-55
2022/01/05 11:50:47;;;;;;;;;1.00;0.40;;;;;2.75;86.31;98645.28;5086041;28;8838;-56
2022/01/05 11:53:15;;;;;;;;;0.20;0.20;;;;;2.73;86.88;98647.19;5086140;28;8892;-57
2022/01/05 11:55:42;;;;;;;;;3.00;1.00;;;;;2.74;86.82;98652.31;5083077;28;8974;-56
2022/01/05 11:58:10;;;;;;;;;3.00;3.00;;;;;2.78;86.93;98652.94;5084425;28;10035;-56
2022/01/05 12:00:38;;;;;;;;;2.60;1.80;;;;;2.84;86.81;98661.25;5082493;28;8846;-56
2022/01/05 12:03:06;;;;;;;;;0.00;0.00;;;;;2.88;86.85;98652.19;5081775;28;8846;-56
2022/01/05 12:05:34;;;;;;;;;0.80;0.80;;;;;2.93;86.84;98636.09;5082679;28;8850;-56